Time;durP1;ratioP1;P1;durP2;ratioP2;P2;SDS_P1;SDS_P2;PMS_P1;PMS_P2;Temp;Humidity;BMP_temperature;BMP_pressure;BME280_temperature;BME280_humidity;BME280_pressure;Samples;Min_cycle;Max_cycle;Signal;HPM_P1;HPM_P2
2023/10/04 00:02:15;;;;;;;7.30;3.90;;;;;;;16.34;85.20;100002.20;131170;1251;107816;-80
2023/10/04 00:05:22;;;;;;;5.90;3.30;;;;;;;16.34;85.02;99996.15;131107;1256;107134;-80
2023/10/04 00:08:29;;;;;;;7.70;3.50;;;;;;;16.28;85.36;100012.40;131099;1257;107579;-79
2023/10/04 00:11:34;;;;;;;8.40;3.40;;;;;;;16.24;85.27;100028.44;131063;1256;107263;-79
2023/10/04 00:14:40;;;;;;;6.20;3.10;;;;;;;16.20;85.47;100029.85;131050;1255;107435;-80
2023/10/04 00:17:47;;;;;;;6.80;3.20;;;;;;;16.16;85.72;100034.86;131123;1256;106669;-79
2023/10/04 00:20:52;;;;;;;4.90;2.90;;;;;;;16.16;86.26;100051.39;131030;1256;107815;-79
2023/10/04 00:24:00;;;;;;;5.80;2.70;;;;;;;16.05;86.71;100063.73;131043;1256;107417;-80
2023/10/04 00:27:05;;;;;;;4.10;2.20;;;;;;;15.83;86.88;100086.17;131091;1256;107474;-79
2023/10/04 00:30:16;;;;;;;2.80;1.70;;;;;;;15.70;86.95;100113.52;131041;1257;107660;-79
2023/10/04 00:33:22;;;;;;;4.70;1.50;;;;;;;15.51;87.72;100138.30;131069;1256;107800;-80
2023/10/04 00:36:29;;;;;;;3.20;1.20;;;;;;;15.25;87.87;100154.18;131410;1250;108632;-79
2023/10/04 00:39:36;;;;;;;2.20;1.00;;;;;;;14.96;88.37;100155.88;131103;1257;108238;-79
2023/10/04 00:42:41;;;;;;;1.50;0.90;;;;;;;14.73;88.29;100147.69;131063;1256;107850;-79
2023/10/04 00:45:48;;;;;;;1.70;1.00;;;;;;;14.51;89.88;100144.39;131032;1257;106961;-79
2023/10/04 00:48:57;;;;;;;2.00;1.00;;;;;;;14.38;90.05;100162.73;130969;1256;201920;-79
2023/10/04 00:52:08;;;;;;;3.50;0.90;;;;;;;14.29;89.49;100172.36;131142;1256;108153;-79
2023/10/04 00:55:13;;;;;;;2.20;0.80;;;;;;;14.34;88.68;100174.52;131105;1256;108660;-79
2023/10/04 00:58:19;;;;;;;1.90;1.00;;;;;;;14.41;88.37;100179.20;130919;1257;106920;-79
2023/10/04 01:01:25;;;;;;;2.90;0.80;;;;;;;14.45;88.43;100168.14;131062;1255;108038;-79
2023/10/04 01:04:31;;;;;;;1.80;1.00;;;;;;;14.41;89.69;100171.83;130965;1256;106802;-79
2023/10/04 01:07:38;;;;;;;2.20;0.80;;;;;;;14.29;90.53;100198.45;131085;1255;107775;-79
2023/10/04 01:10:46;;;;;;;2.50;0.80;;;;;;;14.23;89.58;100213.70;131046;1256;106949;-79
2023/10/04 01:14:06;;;;;;;2.40;0.90;;;;;;;14.23;90.21;100216.70;130931;1256;107270;-78
2023/10/04 01:17:12;;;;;;;2.10;0.80;;;;;;;14.20;91.08;100218.85;131073;1251;107762;-79
2023/10/04 01:20:22;;;;;;;2.90;0.80;;;;;;;14.18;90.58;100222.29;130923;1256;107838;-79
2023/10/04 01:23:28;;;;;;;1.70;0.70;;;;;;;14.14;90.20;100223.45;131007;1256;108011;-79
2023/10/04 01:26:36;;;;;;;1.10;0.70;;;;;;;14.14;91.41;100233.14;130937;1257;107904;-79
2023/10/04 01:29:42;;;;;;;2.40;0.70;;;;;;;14.10;91.41;100219.25;130960;1256;106617;-78
2023/10/04 01:32:50;;;;;;;2.50;0.70;;;;;;;14.07;91.22;100220.52;131091;1256;108477;-80
2023/10/04 01:35:56;;;;;;;1.90;0.70;;;;;;;14.11;90.94;100247.45;131128;1250;107559;-78
2023/10/04 01:39:05;;;;;;;1.20;0.60;;;;;;;14.17;90.41;100266.48;131115;1253;106207;-79
2023/10/04 01:42:11;;;;;;;1.30;0.40;;;;;;;14.18;90.53;100270.59;131046;1251;107981;-79
2023/10/04 01:45:18;;;;;;;1.80;0.60;;;;;;;14.07;91.03;100278.13;130995;1256;108540;-78
2023/10/04 01:48:26;;;;;;;2.00;0.90;;;;;;;13.98;90.32;100287.39;131062;1255;107960;-78
2023/10/04 01:51:32;;;;;;;1.80;0.80;;;;;;;13.93;90.88;100299.14;131168;1256;108374;-78
2023/10/04 01:54:38;;;;;;;2.90;0.80;;;;;;;13.90;90.68;100297.39;131081;1256;108608;-81
2023/10/04 01:57:45;;;;;;;2.30;0.80;;;;;;;13.90;90.14;100311.50;131245;1256;106170;-81
2023/10/04 02:00:51;;;;;;;3.20;0.80;;;;;;;13.91;89.64;100312.48;131356;1255;107940;-81
2023/10/04 02:04:00;;;;;;;3.70;0.90;;;;;;;13.91;90.03;100322.79;131375;1257;108596;-81
2023/10/04 02:07:07;;;;;;;1.20;0.70;;;;;;;13.87;90.14;100333.23;131177;1256;108783;-81
2023/10/04 02:10:17;;;;;;;1.40;0.80;;;;;;;13.80;90.13;100343.45;131245;1252;108696;-81
2023/10/04 02:13:25;;;;;;;1.50;0.80;;;;;;;13.81;90.18;100350.12;131266;1255;107773;-78
2023/10/04 02:16:31;;;;;;;4.50;1.20;;;;;;;13.83;89.85;100358.25;131100;1264;107764;-79
2023/10/04 02:19:37;;;;;;;5.10;1.10;;;;;;;13.81;89.98;100365.17;131041;1256;107071;-78
2023/10/04 02:22:43;;;;;;;3.60;1.20;;;;;;;13.75;90.21;100368.60;131073;1257;106947;-78
2023/10/04 02:25:49;;;;;;;2.00;1.00;;;;;;;13.63;90.09;100361.39;131232;1257;108570;-81
2023/10/04 02:28:57;;;;;;;3.20;1.00;;;;;;;13.55;90.17;100362.94;131511;1251;106745;-82
2023/10/04 02:32:08;;;;;;;4.60;1.00;;;;;;;13.50;90.02;100371.60;131377;1253;107831;-82
2023/10/04 02:35:23;;;;;;;2.80;1.10;;;;;;;13.48;89.66;100377.86;131542;1253;109407;-80
2023/10/04 02:38:33;;;;;;;2.00;1.10;;;;;;;13.48;89.57;100372.90;131661;1254;107965;-76
2023/10/04 02:41:40;;;;;;;3.20;1.30;;;;;;;13.50;89.63;100374.71;131584;1254;108727;-76
2023/10/04 02:44:47;;;;;;;5.10;1.10;;;;;;;13.53;89.52;100384.42;131070;1255;107705;-75
2023/10/04 02:47:54;;;;;;;3.50;1.40;;;;;;;13.51;89.83;100397.56;131219;1256;106855;-75
2023/10/04 02:51:00;;;;;;;3.30;1.30;;;;;;;13.45;90.35;100406.11;131079;1256;108480;-76
2023/10/04 02:54:07;;;;;;;2.40;1.00;;;;;;;13.42;89.78;100417.17;131022;1252;105680;-75
2023/10/04 02:57:13;;;;;;;3.90;1.30;;;;;;;13.42;89.65;100421.83;131074;1256;106773;-75
2023/10/04 03:00:21;;;;;;;2.50;1.00;;;;;;;13.38;89.69;100424.17;131036;1257;107426;-75
2023/10/04 03:03:33;;;;;;;3.20;1.40;;;;;;;13.32;89.75;100425.14;131048;1257;107809;-75
2023/10/04 03:06:42;;;;;;;4.90;1.20;;;;;;;13.25;90.10;100433.20;131138;1257;106943;-75
2023/10/04 03:09:50;;;;;;;2.70;1.20;;;;;;;13.17;89.96;100448.03;131041;1256;107472;-76
2023/10/04 03:12:59;;;;;;;3.00;1.10;;;;;;;13.13;89.67;100451.05;130913;1256;106740;-76
2023/10/04 03:16:11;;;;;;;3.60;1.30;;;;;;;13.13;89.43;100452.49;130859;1251;107939;-76
2023/10/04 03:19:16;;;;;;;;;;;;;;;13.12;89.33;100452.08;130909;1256;106527;-76
2023/10/04 03:22:22;;;;;;;3.60;1.10;;;;;;;13.15;89.45;100461.27;131102;1255;108650;-75
2023/10/04 03:25:29;;;;;;;3.70;1.30;;;;;;;13.11;89.32;100471.11;131024;1264;106628;-75
2023/10/04 03:28:37;;;;;;;4.40;1.10;;;;;;;13.08;89.24;100475.45;130991;1256;107745;-76
2023/10/04 03:31:44;;;;;;;3.00;1.30;;;;;;;13.06;89.34;100480.97;131051;1256;106889;-75
2023/10/04 03:34:50;;;;;;;2.40;0.90;;;;;;;13.03;89.25;100489.39;131006;1257;107613;-75
2023/10/04 03:37:58;;;;;;;5.10;1.20;;;;;;;13.06;89.40;100496.16;130984;1256;107042;-77
2023/10/04 03:41:05;;;;;;;4.30;1.40;;;;;;;13.09;89.23;100502.80;131030;1256;107936;-75
2023/10/04 03:44:11;;;;;;;5.10;1.20;;;;;;;13.03;89.39;100500.59;130875;1266;107562;-76
2023/10/04 03:47:20;;;;;;;4.30;1.40;;;;;;;12.98;89.26;100492.57;130918;1256;105418;-76
2023/10/04 03:50:27;;;;;;;5.50;2.00;;;;;;;12.94;89.33;100502.02;131084;1254;107472;-77
2023/10/04 03:53:33;;;;;;;3.50;1.50;;;;;;;12.93;89.45;100509.77;131026;1264;107875;-75
2023/10/04 03:56:41;;;;;;;4.10;1.60;;;;;;;12.91;89.46;100509.36;131025;1257;106889;-75
2023/10/04 03:59:46;;;;;;;5.50;1.50;;;;;;;12.89;89.28;100518.52;131049;1256;107652;-76
2023/10/04 04:02:54;;;;;;;3.60;1.40;;;;;;;12.92;89.40;100530.08;131047;1257;107881;-75
2023/10/04 04:06:00;;;;;;;4.80;1.70;;;;;;;12.96;89.85;100531.86;130912;1256;107794;-76
2023/10/04 04:09:09;;;;;;;3.80;1.60;;;;;;;13.00;89.47;100537.00;131064;1257;107735;-75
2023/10/04 04:12:16;;;;;;;5.10;1.90;;;;;;;13.07;89.12;100540.88;131061;1261;106468;-75
2023/10/04 04:15:23;;;;;;;6.50;2.00;;;;;;;13.06;89.19;100540.80;131068;1258;106628;-76
2023/10/04 04:18:30;;;;;;;4.50;1.70;;;;;;;13.00;88.97;100536.27;130972;1259;107811;-75
2023/10/04 04:21:36;;;;;;;3.80;1.80;;;;;;;12.99;88.94;100541.20;131096;1255;108700;-75
2023/10/04 04:24:42;;;;;;;5.10;2.00;;;;;;;12.97;88.96;100547.80;131131;1256;108452;-76
2023/10/04 04:27:49;;;;;;;4.00;1.70;;;;;;;12.98;89.07;100548.81;131014;1255;107599;-75
2023/10/04 04:30:58;;;;;;;3.80;1.60;;;;;;;13.01;88.99;100553.61;130950;1256;107424;-75
2023/10/04 04:34:07;;;;;;;8.10;1.80;;;;;;;13.07;88.93;100561.48;131042;1256;106748;-76
2023/10/04 04:37:14;;;;;;;4.00;1.60;;;;;;;13.12;88.58;100565.02;131155;1256;105892;-75
2023/10/04 04:40:24;;;;;;;4.90;1.60;;;;;;;13.14;88.58;100570.16;131080;1257;107662;-75
2023/10/04 04:43:37;;;;;;;7.40;2.00;;;;;;;13.13;88.54;100571.44;131074;1256;107594;-76
2023/10/04 04:46:47;;;;;;;6.60;1.80;;;;;;;13.15;88.40;100566.84;131457;1256;107050;-76
2023/10/04 04:49:54;;;;;;;5.90;1.90;;;;;;;13.14;88.31;100571.52;135077;1250;107068;-77
2023/10/04 04:53:08;;;;;;;5.10;2.00;;;;;;;13.16;88.37;100575.07;131256;1256;106598;-79
2023/10/04 04:56:15;;;;;;;6.00;1.90;;;;;;;13.21;88.23;100582.08;131187;1256;106567;-78
2023/10/04 04:59:24;;;;;;;6.00;1.70;;;;;;;13.29;88.21;100582.50;131303;1257;107468;-80
2023/10/04 05:02:32;;;;;;;4.80;1.60;;;;;;;13.31;88.17;100583.70;131359;1255;108706;-80
2023/10/04 05:05:38;;;;;;;6.80;1.70;;;;;;;13.39;87.98;100583.82;130984;1257;108736;-77
2023/10/04 05:08:44;;;;;;;5.90;2.00;;;;;;;13.45;87.72;100601.93;130949;1256;106616;-79
2023/10/04 05:11:49;;;;;;;4.80;1.70;;;;;;;13.51;87.61;100606.09;131340;1257;108404;-79
2023/10/04 05:14:55;;;;;;;3.20;1.60;;;;;;;13.55;87.49;100613.52;131137;1257;106647;-77
2023/10/04 05:18:03;;;;;;;3.40;1.60;;;;;;;13.59;87.43;100608.98;131013;1251;108718;-79
2023/10/04 05:21:10;;;;;;;3.90;1.60;;;;;;;13.61;87.38;100617.14;131036;1264;106364;-79
2023/10/04 05:24:16;;;;;;;3.60;1.60;;;;;;;13.65;87.35;100616.66;131072;1256;106301;-78
2023/10/04 05:27:21;;;;;;;5.10;2.00;;;;;;;13.68;87.04;100619.67;130817;1257;108130;-79
2023/10/04 05:30:27;;;;;;;4.20;1.70;;;;;;;13.72;86.86;100625.69;131029;1256;108845;-78
2023/10/04 05:33:35;;;;;;;5.30;1.50;;;;;;;13.74;86.42;100628.98;131011;1255;107061;-79
2023/10/04 05:36:40;;;;;;;9.60;2.00;;;;;;;13.72;86.23;100636.52;131110;1255;106804;-80
2023/10/04 05:39:46;;;;;;;4.00;1.50;;;;;;;13.69;86.09;100640.94;131005;1257;106778;-80
2023/10/04 05:42:53;;;;;;;4.80;1.50;;;;;;;13.72;85.93;100639.96;131083;1257;108552;-80
2023/10/04 05:45:59;;;;;;;4.10;1.70;;;;;;;13.75;86.11;100643.96;131071;1254;107162;-79
2023/10/04 05:49:09;;;;;;;5.70;1.70;;;;;;;13.79;86.19;100647.29;130996;1261;108472;-80
2023/10/04 05:52:15;;;;;;;4.60;1.80;;;;;;;13.86;85.92;100651.60;131026;1256;107573;-79
2023/10/04 05:55:21;;;;;;;4.20;1.60;;;;;;;13.89;85.82;100655.19;131129;1263;106587;-81
2023/10/04 05:58:27;;;;;;;5.00;1.60;;;;;;;13.90;85.67;100661.16;131181;1255;106793;-80
2023/10/04 06:01:34;;;;;;;5.80;1.90;;;;;;;13.88;85.64;100662.80;131079;1257;107825;-79
2023/10/04 06:04:42;;;;;;;3.70;1.30;;;;;;;13.86;85.85;100665.15;131054;1257;107894;-79
2023/10/04 06:07:48;;;;;;;4.50;1.50;;;;;;;13.89;85.98;100668.73;131110;1264;106678;-78
2023/10/04 06:10:54;;;;;;;4.90;1.80;;;;;;;13.96;85.77;100674.79;131018;1257;107061;-80
2023/10/04 06:14:01;;;;;;;5.90;1.60;;;;;;;14.00;85.74;100681.14;131128;1264;107615;-81
2023/10/04 06:17:07;;;;;;;3.30;1.60;;;;;;;14.06;85.30;100681.21;131142;1251;107080;-81
2023/10/04 06:20:24;;;;;;;3.60;1.70;;;;;;;14.06;85.28;100686.26;131055;1264;107798;-81
2023/10/04 06:23:31;;;;;;;6.40;1.60;;;;;;;14.12;85.36;100689.54;131016;1257;108563;-78
2023/10/04 06:26:36;;;;;;;3.60;1.50;;;;;;;14.21;85.22;100695.89;131023;1258;108713;-79
2023/10/04 06:29:43;;;;;;;4.30;1.50;;;;;;;14.32;84.88;100697.07;130973;1251;106588;-80
2023/10/04 06:32:49;;;;;;;5.00;1.90;;;;;;;14.43;84.46;100698.38;131117;1257;106262;-80
2023/10/04 06:35:55;;;;;;;3.60;1.70;;;;;;;14.56;84.31;100703.92;131189;1254;106590;-79
2023/10/04 06:39:01;;;;;;;2.90;1.60;;;;;;;14.63;83.91;100707.98;131207;1255;106877;-82
2023/10/04 06:42:07;;;;;;;3.90;1.70;;;;;;;14.64;82.70;100712.91;131280;1257;106548;-79
2023/10/04 06:45:19;;;;;;;5.50;1.90;;;;;;;14.58;83.09;100711.50;131199;1256;107721;-82
2023/10/04 06:48:25;;;;;;;5.60;1.60;;;;;;;14.49;82.72;100721.27;131186;1256;106984;-79
2023/10/04 06:51:30;;;;;;;3.60;1.60;;;;;;;14.43;82.67;100720.15;131253;1251;106864;-80
2023/10/04 06:54:36;;;;;;;5.10;1.70;;;;;;;14.43;82.74;100723.38;131090;1251;108447;-81
2023/10/04 06:57:43;;;;;;;4.10;1.50;;;;;;;14.46;82.64;100723.06;131060;1257;106941;-79
2023/10/04 07:00:50;;;;;;;3.60;1.60;;;;;;;14.47;82.13;100730.32;131023;1251;107851;-81
2023/10/04 07:03:55;;;;;;;5.00;2.10;;;;;;;14.48;82.41;100733.57;131088;1254;105966;-81
2023/10/04 07:07:01;;;;;;;3.50;1.70;;;;;;;14.54;82.55;100731.66;130843;1257;107492;-81
2023/10/04 07:10:09;;;;;;;4.40;1.80;;;;;;;14.54;81.80;100737.59;131130;1266;107844;-79
2023/10/04 07:13:15;;;;;;;4.20;1.60;;;;;;;14.51;81.16;100733.63;131003;1251;106756;-79
2023/10/04 07:16:21;;;;;;;4.70;1.70;;;;;;;14.50;81.76;100735.98;131002;1257;108694;-78
2023/10/04 07:19:28;;;;;;;3.80;1.50;;;;;;;14.49;81.46;100742.73;130958;1264;107856;-78
2023/10/04 07:22:34;;;;;;;6.00;2.00;;;;;;;14.46;80.25;100751.69;131018;1264;107221;-78
2023/10/04 07:25:44;;;;;;;4.10;1.80;;;;;;;14.47;81.22;100747.52;130957;1255;107579;-78
2023/10/04 07:28:49;;;;;;;5.60;1.60;;;;;;;14.50;81.00;100755.38;131003;1257;107605;-79
2023/10/04 07:31:55;;;;;;;6.90;1.80;;;;;;;14.55;80.69;100761.88;130975;1251;107235;-80
2023/10/04 07:35:03;;;;;;;4.70;1.90;;;;;;;14.54;80.31;100762.64;131005;1251;106584;-79
2023/10/04 07:38:09;;;;;;;4.10;1.70;;;;;;;14.55;79.85;100767.23;131034;1254;108406;-79
2023/10/04 07:41:14;;;;;;;4.30;2.00;;;;;;;14.57;80.05;100770.42;130947;1255;108447;-78
2023/10/04 07:44:20;;;;;;;4.00;1.80;;;;;;;14.59;79.80;100774.39;130985;1261;106906;-79
2023/10/04 07:47:26;;;;;;;5.40;1.90;;;;;;;14.67;79.97;100774.17;130983;1251;107772;-77
2023/10/04 07:50:32;;;;;;;3.70;1.70;;;;;;;14.78;79.96;100777.42;130977;1264;108386;-78
2023/10/04 07:53:38;;;;;;;4.20;1.70;;;;;;;14.90;79.66;100780.47;131026;1264;107596;-79
2023/10/04 07:56:44;;;;;;;4.30;1.90;;;;;;;15.01;78.99;100780.90;130972;1257;106424;-80
2023/10/04 07:59:51;;;;;;;5.60;1.60;;;;;;;15.07;78.71;100787.72;131057;1255;107804;-78
2023/10/04 08:02:58;;;;;;;3.60;1.70;;;;;;;15.05;78.25;100788.48;131055;1255;107636;-78
2023/10/04 08:06:11;;;;;;;5.20;2.10;;;;;;;15.05;78.86;100796.25;131126;1255;107763;-79
2023/10/04 08:09:17;;;;;;;4.20;1.90;;;;;;;15.13;77.88;100798.36;131035;1254;109154;-78
2023/10/04 08:12:23;;;;;;;6.60;2.00;;;;;;;15.17;78.37;100795.94;131071;1254;106536;-77
2023/10/04 08:15:30;;;;;;;4.30;2.10;;;;;;;15.25;77.17;100801.30;130997;1255;106693;-80
2023/10/04 08:18:36;;;;;;;3.20;1.80;;;;;;;15.26;77.47;100799.77;130976;1257;106349;-78
2023/10/04 08:21:42;;;;;;;4.90;2.10;;;;;;;15.30;78.19;100806.01;130917;1256;106688;-79
2023/10/04 08:24:49;;;;;;;4.60;1.90;;;;;;;15.35;77.82;100812.28;130996;1264;107765;-79
2023/10/04 08:27:55;;;;;;;5.40;1.70;;;;;;;15.35;77.23;100814.91;130924;1264;107645;-78
2023/10/04 08:31:01;;;;;;;5.60;2.00;;;;;;;15.35;77.00;100814.73;131019;1251;106909;-79
2023/10/04 08:34:07;;;;;;;5.20;2.00;;;;;;;15.36;75.86;100821.86;130962;1251;106754;-77
2023/10/04 08:37:13;;;;;;;5.90;2.40;;;;;;;15.30;76.26;100822.02;130967;1254;107793;-79
2023/10/04 08:40:19;;;;;;;4.90;2.10;;;;;;;15.32;75.71;100824.55;130940;1251;106595;-79
2023/10/04 08:43:25;;;;;;;4.90;2.10;;;;;;;15.27;75.88;100824.59;131038;1254;107895;-79
2023/10/04 08:46:32;;;;;;;3.70;2.10;;;;;;;15.31;76.08;100822.33;130994;1257;107795;-78
2023/10/04 08:49:50;;;;;;;6.90;2.40;;;;;;;15.38;76.15;100827.10;131018;1255;107042;-78
2023/10/04 08:53:03;;;;;;;3.60;2.10;;;;;;;15.42;74.94;100827.29;130983;1251;108437;-80
2023/10/04 08:56:13;;;;;;;6.30;2.00;;;;;;;15.43;75.66;100828.03;130994;1254;107675;-80
2023/10/04 08:59:21;;;;;;;4.10;2.20;;;;;;;15.49;75.27;100823.75;130945;1264;107027;-78
2023/10/04 09:02:28;;;;;;;4.70;2.20;;;;;;;15.54;75.16;100823.98;131020;1251;107767;-80
2023/10/04 09:05:34;;;;;;;3.30;2.10;;;;;;;15.56;74.33;100818.52;131065;1251;107728;-82
2023/10/04 09:08:42;;;;;;;4.90;2.00;;;;;;;15.54;74.39;100819.30;130965;1254;107222;-80
2023/10/04 09:11:47;;;;;;;4.20;1.90;;;;;;;15.56;75.27;100823.30;131030;1255;107730;-78
2023/10/04 09:14:53;;;;;;;4.10;1.80;;;;;;;15.62;75.27;100819.65;130884;1254;107565;-80
2023/10/04 09:18:02;;;;;;;4.70;2.10;;;;;;;15.58;74.15;100823.86;130919;1264;107801;-81
2023/10/04 09:21:17;;;;;;;6.10;2.20;;;;;;;15.55;74.86;100824.71;130932;1264;107637;-82
2023/10/04 09:24:24;;;;;;;4.10;1.90;;;;;;;15.58;74.72;100831.57;131085;1255;107123;-81
2023/10/04 09:27:30;;;;;;;5.00;2.30;;;;;;;15.59;74.48;100829.52;130980;1254;106885;-79
2023/10/04 09:30:37;;;;;;;2.90;1.80;;;;;;;15.63;74.14;100831.55;130942;1258;107251;-79
2023/10/04 09:33:44;;;;;;;5.80;2.30;;;;;;;15.71;74.05;100823.48;130999;1262;108757;-80
2023/10/04 09:36:51;;;;;;;5.80;2.10;;;;;;;15.86;74.43;100823.45;130982;1251;107756;-80
2023/10/04 09:40:11;;;;;;;4.20;2.10;;;;;;;16.00;73.70;100829.55;131115;1254;107738;-78
2023/10/04 09:43:16;;;;;;;4.40;2.00;;;;;;;16.05;72.90;100826.45;130973;1257;107783;-80
2023/10/04 09:46:22;;;;;;;5.60;2.10;;;;;;;16.14;73.30;100823.37;130955;1251;106903;-80
2023/10/04 09:49:31;;;;;;;3.90;2.10;;;;;;;16.12;72.74;100820.50;131009;1251;108030;-80
2023/10/04 09:52:38;;;;;;;5.20;2.20;;;;;;;16.15;73.61;100819.28;130980;1256;106475;-80
2023/10/04 09:55:46;;;;;;;4.80;2.10;;;;;;;16.19;71.70;100817.48;131033;1264;107550;-80
2023/10/04 09:58:55;;;;;;;4.60;2.20;;;;;;;16.15;72.01;100820.67;131049;1254;107897;-79
2023/10/04 10:02:01;;;;;;;5.50;2.00;;;;;;;16.23;72.47;100818.17;131064;1264;107065;-78
2023/10/04 10:05:10;;;;;;;5.50;2.00;;;;;;;16.37;71.95;100824.65;130949;1251;108672;-79
2023/10/04 10:08:17;;;;;;;3.80;2.00;;;;;;;16.38;72.03;100823.36;131040;1253;108608;-79
2023/10/04 10:11:24;;;;;;;4.40;2.30;;;;;;;16.31;71.29;100827.80;131027;1250;107646;-81
2023/10/04 10:14:31;;;;;;;4.90;2.30;;;;;;;16.20;71.93;100824.53;131022;1255;107778;-79
2023/10/04 10:17:37;;;;;;;5.90;2.80;;;;;;;16.17;72.59;100823.85;131050;1255;106711;-81
2023/10/04 10:20:43;;;;;;;4.70;2.40;;;;;;;16.12;71.88;100829.05;131067;1257;107113;-80
2023/10/04 10:24:03;;;;;;;3.20;2.20;;;;;;;16.05;71.78;100822.99;130993;1257;106847;-78
2023/10/04 10:27:13;;;;;;;4.80;2.20;;;;;;;15.97;71.15;100826.66;131165;1250;107654;-81
2023/10/04 10:30:18;;;;;;;5.10;2.30;;;;;;;15.93;71.90;100832.13;131103;1257;106573;-82
2023/10/04 10:33:25;;;;;;;5.20;2.40;;;;;;;15.91;71.42;100839.58;130996;1256;106732;-79
2023/10/04 10:36:32;;;;;;;3.60;2.20;;;;;;;15.82;71.78;100827.70;130994;1257;106641;-79
2023/10/04 10:39:45;;;;;;;3.30;2.00;;;;;;;15.81;72.06;100833.02;131002;1256;107585;-80
2023/10/04 10:43:10;;;;;;;4.50;2.20;;;;;;;15.83;71.99;100835.34;130971;1251;108534;-80
2023/10/04 10:46:31;;;;;;;6.70;2.80;;;;;;;15.86;71.57;100831.61;130981;1256;107425;-79
2023/10/04 10:49:52;;;;;;;4.20;2.10;;;;;;;15.85;71.65;100832.30;131019;1257;107759;-79
2023/10/04 10:53:06;;;;;;;6.00;2.10;;;;;;;15.86;71.48;100833.46;131073;1254;108400;-81
2023/10/04 10:56:13;;;;;;;3.50;2.20;;;;;;;15.91;71.22;100829.18;131061;1256;108111;-79
2023/10/04 10:59:19;;;;;;;4.20;2.10;;;;;;;15.93;70.63;100831.96;131078;1251;108624;-80
2023/10/04 11:02:26;;;;;;;4.20;2.40;;;;;;;16.00;69.78;100826.34;131038;1251;107726;-80
2023/10/04 11:05:31;;;;;;;5.60;2.10;;;;;;;15.97;69.74;100826.34;130976;1254;107407;-80
2023/10/04 11:08:37;;;;;;;4.00;2.20;;;;;;;15.91;69.74;100826.83;131027;1251;106913;-80
2023/10/04 11:11:43;;;;;;;4.00;2.00;;;;;;;15.91;70.51;100821.27;131013;1251;106913;-81
2023/10/04 11:14:50;;;;;;;3.40;2.10;;;;;;;15.93;70.32;100818.64;131004;1254;107792;-78
2023/10/04 11:17:56;;;;;;;5.00;2.20;;;;;;;15.91;69.47;100822.35;131098;1251;106772;-80
2023/10/04 11:21:06;;;;;;;5.70;2.40;;;;;;;15.79;69.86;100823.67;131023;1254;106951;-79
2023/10/04 11:24:14;;;;;;;4.90;2.20;;;;;;;15.82;70.52;100819.90;131038;1254;106590;-81
2023/10/04 11:27:24;;;;;;;4.90;2.00;;;;;;;15.91;70.16;100819.45;131083;1251;107795;-81
2023/10/04 11:30:33;;;;;;;3.70;2.10;;;;;;;16.02;70.61;100811.34;131006;1251;109272;-80
2023/10/04 11:33:55;;;;;;;3.70;2.10;;;;;;;16.14;69.91;100811.41;130993;1251;107457;-80
2023/10/04 11:37:01;;;;;;;4.10;2.20;;;;;;;16.23;70.09;100809.17;130987;1251;106921;-79
2023/10/04 11:40:11;;;;;;;3.50;2.00;;;;;;;16.30;69.75;100813.52;130970;1254;107574;-79
2023/10/04 11:43:18;;;;;;;4.30;2.30;;;;;;;16.34;70.28;100814.52;131005;1255;107645;-80
2023/10/04 11:46:24;;;;;;;5.10;2.90;;;;;;;16.43;70.31;100809.77;130993;1251;107185;-81
2023/10/04 11:49:30;;;;;;;10.50;5.40;;;;;;;16.49;69.98;100815.29;131041;1253;107567;-80
2023/10/04 11:52:36;;;;;;;10.90;5.40;;;;;;;16.46;69.53;100812.41;131041;1253;107603;-80
2023/10/04 11:55:42;;;;;;;224.60;133.10;;;;;;;16.40;68.92;100814.58;130940;1257;107695;-80
2023/10/04 11:58:49;;;;;;;395.80;297.40;;;;;;;16.41;69.37;100822.47;130992;1255;106576;-79
2023/10/04 12:01:55;;;;;;;61.40;39.00;;;;;;;16.43;69.15;100824.21;131044;1254;107178;-78
2023/10/04 12:05:02;;;;;;;20.20;14.40;;;;;;;16.36;68.44;100825.77;130930;1257;108739;-79
2023/10/04 12:08:09;;;;;;;10.50;5.60;;;;;;;16.21;67.97;100831.23;130891;1256;106938;-79
2023/10/04 12:11:21;;;;;;;5.10;2.70;;;;;;;16.17;69.19;100825.46;130958;1254;106880;-80
2023/10/04 12:14:31;;;;;;;5.90;2.50;;;;;;;16.17;68.89;100824.64;131008;1255;107595;-79
2023/10/04 12:17:37;;;;;;;5.20;2.80;;;;;;;16.18;69.22;100824.16;131029;1251;107583;-81
2023/10/04 12:20:43;;;;;;;4.90;3.30;;;;;;;16.32;69.62;100820.91;130974;1254;106785;-80
2023/10/04 12:23:49;;;;;;;6.50;3.40;;;;;;;16.49;69.04;100819.80;130984;1256;107133;-80
2023/10/04 12:26:55;;;;;;;16.80;10.00;;;;;;;16.60;68.91;100825.31;130999;1252;105677;-79
2023/10/04 12:30:01;;;;;;;29.20;16.20;;;;;;;16.68;68.43;100824.23;130963;1254;107821;-80
2023/10/04 12:33:08;;;;;;;34.40;17.70;;;;;;;16.67;67.50;100823.42;131010;1254;107965;-79
2023/10/04 12:36:15;;;;;;;19.10;9.50;;;;;;;16.54;67.26;100819.23;131000;1258;106862;-81
2023/10/04 12:39:21;;;;;;;20.70;9.50;;;;;;;16.46;67.55;100819.59;130919;1256;107198;-81
2023/10/04 12:42:26;;;;;;;82.30;34.10;;;;;;;16.42;68.10;100819.66;130965;1250;107563;-82
2023/10/04 12:45:32;;;;;;;160.40;71.70;;;;;;;16.45;68.48;100817.73;130997;1256;108856;-79
2023/10/04 12:48:38;;;;;;;54.30;27.80;;;;;;;16.45;68.28;100817.52;130821;1254;247368;-81
2023/10/04 12:51:45;;;;;;;82.30;42.00;;;;;;;16.38;67.84;100820.23;130935;1250;108773;-80
2023/10/04 12:54:51;;;;;;;55.00;33.50;;;;;;;16.26;67.87;100825.70;130994;1254;107014;-78
2023/10/04 12:57:57;;;;;;;160.80;84.00;;;;;;;16.20;67.92;100822.61;130994;1257;107032;-80
2023/10/04 13:01:05;;;;;;;89.90;43.10;;;;;;;16.22;68.50;100824.90;130948;1251;109344;-79
2023/10/04 13:04:11;;;;;;;90.10;43.20;;;;;;;16.23;68.12;100824.45;131068;1256;106787;-79
2023/10/04 13:07:17;;;;;;;249.20;118.50;;;;;;;16.18;67.62;100818.87;130910;1256;106917;-80
2023/10/04 13:10:23;;;;;;;419.50;225.80;;;;;;;16.17;67.71;100820.86;130963;1257;108541;-79
2023/10/04 13:13:29;;;;;;;54.60;29.60;;;;;;;16.12;67.28;100819.89;130996;1255;108591;-78
2023/10/04 13:16:35;;;;;;;27.60;15.80;;;;;;;16.07;67.65;100820.80;130906;1251;107018;-78
2023/10/04 13:19:41;;;;;;;8.30;3.70;;;;;;;16.09;67.35;100820.38;130998;1255;108685;-80
2023/10/04 13:22:47;;;;;;;9.00;5.80;;;;;;;16.09;67.56;100817.20;131025;1256;106672;-78
2023/10/04 13:25:53;;;;;;;5.50;2.90;;;;;;;16.13;67.81;100820.74;131033;1256;105669;-80
2023/10/04 13:28:58;;;;;;;5.50;2.30;;;;;;;16.09;67.23;100819.89;130973;1256;107742;-78
2023/10/04 13:32:05;;;;;;;4.80;3.10;;;;;;;15.97;67.37;100816.94;130946;1254;107030;-79
2023/10/04 13:35:12;;;;;;;5.20;3.40;;;;;;;15.97;67.91;100813.40;131013;1251;107022;-79
2023/10/04 13:38:19;;;;;;;6.30;5.00;;;;;;;16.06;68.08;100807.52;130975;1256;106698;-79
2023/10/04 13:41:24;;;;;;;8.60;5.50;;;;;;;16.11;67.67;100812.70;131015;1255;106726;-80
2023/10/04 13:44:32;;;;;;;8.60;6.70;;;;;;;16.00;67.56;100811.25;130892;1256;107558;-81
2023/10/04 13:47:38;;;;;;;4.80;3.40;;;;;;;15.98;67.90;100815.59;131207;1256;106738;-82
2023/10/04 13:50:45;;;;;;;8.30;6.20;;;;;;;16.03;67.88;100812.48;131040;1252;106952;-80
2023/10/04 13:53:51;;;;;;;9.90;8.00;;;;;;;16.09;67.93;100815.45;131129;1256;107898;-80
2023/10/04 13:56:57;;;;;;;5.90;4.50;;;;;;;16.18;67.95;100808.00;131067;1256;107638;-81
2023/10/04 14:00:04;;;;;;;5.30;3.80;;;;;;;16.25;67.92;100802.16;130980;1251;109265;-82
2023/10/04 14:03:17;;;;;;;4.30;3.00;;;;;;;16.31;67.43;100804.86;131139;1256;107201;-81
2023/10/04 14:06:23;;;;;;;4.20;3.50;;;;;;;16.37;67.84;100805.73;131014;1258;108630;-81
2023/10/04 14:09:28;;;;;;;4.60;2.50;;;;;;;16.42;67.87;100800.65;131094;1254;106769;-81